Pagina principale
METAR-TAF:

METAR-TAF

Aeroporti :

Yeovilton, Inghilterra

latitudine: 51-00N, longitudine: 002-38W, altezza: 23 m

Osservazione

Il bollettino è stato emesso 33 minuti fa, alle 18:50 UTC
Vento 13 kt da sud-ovest con raffiche fino a 25 kt
Temperature 8°C
Umidità 66%
Pressione 1000 hPa
Visibilità 10 km o più

METAR: EGDY 161850Z AUTO 23013G25KT 9999 FEW110/// 08/02 Q1000

Ora: 19:23 (19:23 UTC)


TAF: mancante

Osservazioni e previsioni meteorologiche di più di 4000 aeroporti (messaggi METAR e TAF).

Le stazioni disponibili sono rappresentate dai dischi gialli e rossi sulla carta.

Puntare il mouse per vedere il nome della stazione.

Clicca sopra per visualizzare le osservazioni e previsioni meteorologiche.

Per cambiare la mappa : fare clic sui pulsanti verdi con una croce nera per ingrandire, il pulsante verde con un trattino per diminuire, o sulla freccia verde per le mappe adiacenti.


METAR-TAF: